createdAt,value
2022-10-06T00:00:02.891Z,99530.75
2022-10-06T00:02:29.440Z,99524.44
2022-10-06T00:04:55.980Z,99533.84
2022-10-06T00:07:22.490Z,99528.28
2022-10-06T00:09:50.340Z,99535.59
2022-10-06T00:12:16.815Z,99545.44
2022-10-06T00:14:43.431Z,99543.84
2022-10-06T00:17:09.904Z,99541.03
2022-10-06T00:19:36.429Z,99544.44
2022-10-06T00:22:02.937Z,99543.28
2022-10-06T00:24:29.470Z,99533.00
2022-10-06T00:26:57.419Z,99547.06
2022-10-06T00:29:23.896Z,99537.50
2022-10-06T00:31:50.415Z,99543.81
2022-10-06T00:34:16.892Z,99556.72
2022-10-06T00:36:43.396Z,99551.13
2022-10-06T00:39:10.078Z,99551.50
2022-10-06T00:41:36.572Z,99560.09
2022-10-06T00:44:04.423Z,99557.06
2022-10-06T00:46:36.530Z,99570.09
2022-10-06T00:49:16.465Z,99567.69
2022-10-06T00:51:48.054Z,99574.91
2022-10-06T00:54:15.288Z,99579.59
2022-10-06T00:56:42.140Z,99580.38
2022-10-06T00:59:15.784Z,99574.53
2022-10-06T01:01:49.384Z,99586.31
2022-10-06T01:04:18.006Z,99587.44
2022-10-06T01:06:48.145Z,99596.75
2022-10-06T01:09:16.532Z,99588.84
2022-10-06T01:11:44.588Z,99591.88
2022-10-06T01:14:11.494Z,99590.97
2022-10-06T01:16:42.842Z,99616.34
2022-10-06T01:19:19.240Z,99603.81
2022-10-06T01:21:49.396Z,99606.91
2022-10-06T01:24:18.838Z,99606.09
2022-10-06T01:26:49.495Z,99611.13
2022-10-06T01:29:16.329Z,99619.69
2022-10-06T01:31:43.300Z,99626.34
2022-10-06T01:34:10.275Z,99629.06
2022-10-06T01:36:36.777Z,99639.25
2022-10-06T01:39:03.440Z,99661.97
2022-10-06T01:41:31.307Z,99658.28
2022-10-06T01:43:57.765Z,99676.81
2022-10-06T01:46:24.425Z,99658.81
2022-10-06T01:48:50.971Z,99658.75
2022-10-06T01:51:17.834Z,99663.66
2022-10-06T01:53:44.349Z,99671.34
2022-10-06T01:56:11.166Z,99672.41
2022-10-06T01:58:39.177Z,99684.06
2022-10-06T02:01:06.360Z,99690.16
2022-10-06T02:03:34.248Z,99696.34
2022-10-06T02:06:00.881Z,99697.72
2022-10-06T02:08:28.037Z,99701.50
2022-10-06T02:10:54.787Z,99716.59
2022-10-06T02:13:24.666Z,99722.19
2022-10-06T02:15:55.590Z,99718.44
2022-10-06T02:18:22.194Z,99725.75
2022-10-06T02:20:48.844Z,99733.75
2022-10-06T02:23:15.326Z,99741.75
2022-10-06T02:25:41.972Z,99753.38
2022-10-06T02:28:08.510Z,99761.94
2022-10-06T02:30:35.485Z,99756.69
2022-10-06T02:33:03.472Z,99783.03
2022-10-06T02:35:29.983Z,99784.22
2022-10-06T02:37:56.467Z,99787.97
2022-10-06T02:40:23.063Z,99793.78
2022-10-06T02:42:50.097Z,99785.28
2022-10-06T02:45:16.952Z,99811.75
2022-10-06T02:47:43.424Z,99824.88
2022-10-06T02:50:11.283Z,99826.31
2022-10-06T02:52:38.464Z,99827.50
2022-10-06T02:55:06.375Z,99830.00
2022-10-06T02:57:32.881Z,99830.19
2022-10-06T02:59:59.520Z,99834.25
2022-10-06T03:02:26.281Z,99832.41
2022-10-06T03:04:52.876Z,99833.38
2022-10-06T03:07:20.727Z,99842.94
2022-10-06T03:09:47.207Z,99860.00
2022-10-06T03:12:13.722Z,99844.13
2022-10-06T03:14:40.270Z,99854.25
2022-10-06T03:17:06.896Z,99861.06
2022-10-06T03:19:33.554Z,99854.66
2022-10-06T03:22:00.188Z,99872.53
2022-10-06T03:24:28.074Z,99881.06
2022-10-06T03:26:54.583Z,99880.44
2022-10-06T03:29:21.123Z,99870.50
2022-10-06T03:31:47.769Z,99880.50
2022-10-06T03:34:14.299Z,99891.28
2022-10-06T03:36:41.586Z,99896.28
2022-10-06T03:39:08.336Z,99892.28
2022-10-06T03:41:37.702Z,99912.03
2022-10-06T03:44:04.998Z,99917.38
2022-10-06T03:46:34.433Z,99919.16
2022-10-06T03:49:01.186Z,99926.06
2022-10-06T03:51:29.661Z,99933.31
2022-10-06T03:53:56.746Z,99946.34
2022-10-06T03:56:25.249Z,99940.41
2022-10-06T03:58:54.635Z,99948.63
2022-10-06T04:01:26.106Z,99947.00
2022-10-06T04:03:54.183Z,99939.75
2022-10-06T04:06:21.580Z,99952.97
2022-10-06T04:08:49.801Z,99952.63
2022-10-06T04:11:18.683Z,99967.09
2022-10-06T04:13:45.191Z,99960.53
2022-10-06T04:16:15.466Z,99969.22
2022-10-06T04:18:43.378Z,99969.38
2022-10-06T04:21:10.493Z,99969.38
2022-10-06T04:23:37.138Z,99982.13
2022-10-06T04:26:05.965Z,99966.34
2022-10-06T04:28:33.585Z,99985.34
2022-10-06T04:31:01.417Z,99999.81
2022-10-06T04:33:29.606Z,100000.75
2022-10-06T04:35:57.116Z,99997.03
2022-10-06T04:38:24.016Z,100012.97
2022-10-06T04:40:50.544Z,100012.66
2022-10-06T04:43:17.239Z,100016.84
2022-10-06T04:45:43.823Z,100018.25
2022-10-06T04:48:10.370Z,100025.66
2022-10-06T04:50:38.376Z,100027.25
2022-10-06T04:53:04.883Z,100027.75
2022-10-06T04:55:31.412Z,100028.84
2022-10-06T04:57:57.901Z,100037.16
2022-10-06T05:00:24.454Z,100037.47
2022-10-06T05:02:52.592Z,100040.97
2022-10-06T05:05:19.685Z,100053.47
2022-10-06T05:07:47.625Z,100059.22
2022-10-06T05:10:14.252Z,100073.91
2022-10-06T05:12:40.788Z,100067.59
2022-10-06T05:15:08.708Z,100076.84
2022-10-06T05:17:35.220Z,100085.84
2022-10-06T05:20:01.879Z,100084.06
2022-10-06T05:22:28.389Z,100084.69
2022-10-06T05:24:56.283Z,100092.69
2022-10-06T05:27:22.795Z,100089.47
2022-10-06T05:29:49.322Z,100095.69
2022-10-06T05:32:15.906Z,100100.56
2022-10-06T05:34:42.419Z,100102.13
2022-10-06T05:37:08.916Z,100099.50
2022-10-06T05:39:35.438Z,100107.00
2022-10-06T05:42:03.609Z,100112.25
2022-10-06T05:44:30.097Z,100114.91
2022-10-06T05:46:56.611Z,100127.22
2022-10-06T05:49:23.225Z,100124.84
2022-10-06T05:51:49.770Z,100123.38
2022-10-06T05:54:16.320Z,100131.19
2022-10-06T05:56:42.855Z,100129.06
2022-10-06T05:59:10.973Z,100136.75
2022-10-06T06:01:39.522Z,100143.81
2022-10-06T06:04:07.776Z,100153.19
2022-10-06T06:06:37.757Z,100144.59
2022-10-06T06:09:06.384Z,100152.75
2022-10-06T06:11:34.563Z,100156.59
2022-10-06T06:14:04.861Z,100163.06
2022-10-06T06:16:33.468Z,100161.31
2022-10-06T06:19:00.858Z,100166.66
2022-10-06T06:21:28.328Z,100176.34
2022-10-06T06:23:55.042Z,100170.75
2022-10-06T06:26:23.740Z,100184.78
2022-10-06T06:28:50.941Z,100182.44
2022-10-06T06:31:20.307Z,100197.56
2022-10-06T06:33:51.290Z,100203.72
2022-10-06T06:36:20.712Z,100201.97
2022-10-06T06:38:48.938Z,100211.97
2022-10-06T06:41:17.002Z,100219.41
2022-10-06T06:43:43.898Z,100215.88
2022-10-06T06:46:10.773Z,100214.88
2022-10-06T06:48:37.543Z,100219.34
2022-10-06T06:51:05.741Z,100234.91
2022-10-06T06:53:32.473Z,100233.28
2022-10-06T06:55:59.261Z,100238.91
2022-10-06T06:58:26.304Z,100245.56
2022-10-06T07:00:53.354Z,100248.16
2022-10-06T07:03:38.550Z,100257.75
2022-10-06T07:06:12.138Z,100262.22
2022-10-06T07:08:40.500Z,100257.13
2022-10-06T07:11:12.084Z,100266.50
2022-10-06T07:13:38.899Z,100261.41
2022-10-06T07:16:05.977Z,100265.94
2022-10-06T07:18:32.939Z,100271.75
2022-10-06T07:20:59.721Z,100270.19
2022-10-06T07:23:27.581Z,100268.81
2022-10-06T07:25:54.103Z,100288.16
2022-10-06T07:28:20.646Z,100284.47
2022-10-06T07:30:47.223Z,100288.19
2022-10-06T07:33:14.516Z,100290.47
2022-10-06T07:35:41.071Z,100298.38
2022-10-06T07:38:07.549Z,100297.28
2022-10-06T07:40:35.808Z,100312.09
2022-10-06T07:43:02.339Z,100318.72
2022-10-06T07:45:29.769Z,100313.75
2022-10-06T07:47:57.987Z,100327.78
2022-10-06T07:50:24.486Z,100328.78
2022-10-06T07:52:51.012Z,100323.34
2022-10-06T07:55:17.488Z,100329.16
2022-10-06T07:57:46.405Z,100324.19
2022-10-06T08:00:13.563Z,100331.75
2022-10-06T08:02:40.254Z,100338.38
2022-10-06T08:05:07.763Z,100350.44
2022-10-06T08:07:34.765Z,100339.69
2022-10-06T08:10:01.450Z,100339.69
2022-10-06T08:12:28.050Z,100350.63
2022-10-06T08:14:56.396Z,100353.84
2022-10-06T08:17:23.376Z,100352.06
2022-10-06T08:19:49.867Z,100359.31
2022-10-06T08:22:16.424Z,100354.50
2022-10-06T08:25:04.639Z,100359.50
2022-10-06T08:27:29.699Z,100373.50
2022-10-06T08:29:57.856Z,100379.94
2022-10-06T08:32:24.655Z,100386.22
2022-10-06T08:34:51.538Z,100383.00
2022-10-06T08:37:20.497Z,100387.84
2022-10-06T08:39:47.178Z,100393.00
2022-10-06T08:42:18.064Z,100393.16
2022-10-06T08:44:49.298Z,100389.78
2022-10-06T08:47:19.678Z,100390.75
2022-10-06T08:49:47.811Z,100399.59
2022-10-06T08:52:40.952Z,100404.78
2022-10-06T08:55:20.930Z,100412.59
2022-10-06T08:57:58.334Z,100405.53
2022-10-06T09:00:24.943Z,100405.22
2022-10-06T09:02:55.694Z,100414.13
2022-10-06T09:05:22.496Z,100422.13
2022-10-06T09:07:58.877Z,100428.75
2022-10-06T09:10:41.510Z,100423.13
2022-10-06T09:13:17.305Z,100426.97
2022-10-06T09:15:50.488Z,100420.94
2022-10-06T09:18:23.037Z,100422.06
2022-10-06T09:20:53.683Z,100428.03
2022-10-06T09:23:20.484Z,100423.34
2022-10-06T09:25:47.313Z,100428.84
2022-10-06T09:28:15.170Z,100431.22
2022-10-06T09:30:42.268Z,100435.09
2022-10-06T09:33:17.878Z,100433.69
2022-10-06T09:36:04.949Z,100442.16
2022-10-06T09:38:46.286Z,100446.78
2022-10-06T09:41:13.357Z,100438.97
2022-10-06T09:43:41.355Z,100441.97
2022-10-06T09:46:26.589Z,100446.41
2022-10-06T09:49:06.531Z,100443.72
2022-10-06T09:51:34.410Z,100437.78
2022-10-06T09:54:09.268Z,100445.28
2022-10-06T09:56:40.268Z,100440.50
2022-10-06T09:59:20.104Z,100447.47
2022-10-06T10:01:51.489Z,100449.63
2022-10-06T10:04:23.307Z,100444.84
2022-10-06T10:06:51.509Z,100445.28
2022-10-06T10:09:26.109Z,100442.72
2022-10-06T10:12:13.702Z,100445.81
2022-10-06T10:14:40.455Z,100451.56
2022-10-06T10:17:12.657Z,100451.09
2022-10-06T10:19:39.406Z,100449.41
2022-10-06T10:22:18.708Z,100451.63
2022-10-06T10:24:57.702Z,100456.00
2022-10-06T10:27:31.738Z,100456.22
2022-10-06T10:30:05.313Z,100460.81
2022-10-06T10:32:44.911Z,100466.09
2022-10-06T10:35:23.032Z,100453.84
2022-10-06T10:37:55.713Z,100448.78
2022-10-06T10:40:34.388Z,100458.97
2022-10-06T10:43:10.977Z,100458.34
2022-10-06T10:45:42.685Z,100453.13
2022-10-06T10:48:15.349Z,100460.38
2022-10-06T10:50:58.895Z,100472.97
2022-10-06T10:53:36.551Z,100472.19
2022-10-06T10:56:08.810Z,100476.31
2022-10-06T10:58:37.346Z,100472.66
2022-10-06T11:01:14.697Z,100471.69
2022-10-06T11:03:41.472Z,100470.72
2022-10-06T11:06:22.587Z,100467.69
2022-10-06T11:08:57.895Z,100458.09
2022-10-06T11:11:41.659Z,100467.00
2022-10-06T11:14:18.580Z,100469.94
2022-10-06T11:16:51.234Z,100461.13
2022-10-06T11:19:29.907Z,100469.88
2022-10-06T11:22:02.942Z,100458.09
2022-10-06T11:24:44.994Z,100460.69
2022-10-06T11:27:25.287Z,100467.84
2022-10-06T11:30:02.252Z,100465.66
2022-10-06T11:32:41.888Z,100467.13
2022-10-06T11:35:18.920Z,100462.56
2022-10-06T11:37:50.500Z,100462.72
2022-10-06T11:40:40.058Z,100451.84
2022-10-06T11:43:14.836Z,100453.88
2022-10-06T11:45:48.447Z,100440.38
2022-10-06T11:48:24.944Z,100460.31
2022-10-06T11:50:51.570Z,100465.22
2022-10-06T11:53:37.282Z,100464.88
2022-10-06T11:56:37.912Z,100466.22
2022-10-06T11:59:24.671Z,100456.38
2022-10-06T12:01:53.570Z,100459.00
2022-10-06T12:04:24.322Z,100453.06
2022-10-06T12:06:54.012Z,100449.59
2022-10-06T12:09:53.060Z,100455.97
2022-10-06T12:12:43.946Z,100452.09
2022-10-06T12:18:43.115Z,100456.00
2022-10-06T12:21:19.997Z,100453.31
2022-10-06T12:23:58.803Z,100450.06
2022-10-06T12:26:39.772Z,100445.66
2022-10-06T12:29:29.783Z,100450.63
2022-10-06T12:32:04.738Z,100451.31
2022-10-06T12:34:52.147Z,100449.66
2022-10-06T12:37:44.344Z,100450.69
2022-10-06T12:40:56.646Z,100454.41
2022-10-06T12:43:34.282Z,100443.28
2022-10-06T12:46:04.712Z,100436.84
2022-10-06T12:48:39.735Z,100433.38
2022-10-06T12:51:17.607Z,100442.84
2022-10-06T12:53:52.025Z,100439.31
2022-10-06T12:56:27.703Z,100429.50
2022-10-06T12:58:54.741Z,100436.50
2022-10-06T13:01:24.002Z,100432.88
2022-10-06T13:03:52.165Z,100436.13
2022-10-06T13:06:21.577Z,100432.97
2022-10-06T13:09:04.101Z,100419.97
2022-10-06T13:11:30.700Z,100426.75
2022-10-06T13:14:06.672Z,100425.47
2022-10-06T13:16:36.667Z,100429.97
2022-10-06T13:19:03.278Z,100428.97
2022-10-06T13:21:30.351Z,100432.81
2022-10-06T13:23:57.283Z,100432.03
2022-10-06T13:26:27.025Z,100442.84
2022-10-06T13:28:54.931Z,100425.88
2022-10-06T13:31:23.428Z,100427.72
2022-10-06T13:33:55.679Z,100432.28
2022-10-06T13:36:22.792Z,100421.78
2022-10-06T13:38:49.945Z,100425.25
2022-10-06T13:41:22.129Z,100423.88
2022-10-06T13:43:51.411Z,100431.94
2022-10-06T13:46:21.542Z,100429.63
2022-10-06T13:48:54.933Z,100429.38
2022-10-06T13:51:23.938Z,100423.22
2022-10-06T13:53:51.229Z,100431.03
2022-10-06T13:56:36.221Z,100429.09
2022-10-06T13:59:28.740Z,100435.75
2022-10-06T14:01:55.843Z,100426.66
2022-10-06T14:04:23.883Z,100427.19
2022-10-06T14:06:53.499Z,100425.25
2022-10-06T14:09:24.280Z,100421.69
2022-10-06T14:11:52.548Z,100427.47
2022-10-06T14:14:19.521Z,100430.13
2022-10-06T14:16:48.374Z,100424.81
2022-10-06T14:19:34.741Z,100427.97
2022-10-06T14:22:02.317Z,100424.41
2022-10-06T14:24:29.319Z,100421.84
2022-10-06T14:27:01.696Z,100422.03
2022-10-06T14:29:28.225Z,100419.75
2022-10-06T14:31:54.746Z,100416.06
2022-10-06T14:34:21.914Z,100428.44
2022-10-06T14:36:51.156Z,100419.88
2022-10-06T14:39:17.985Z,100420.88
2022-10-06T14:41:44.587Z,100412.41
2022-10-06T14:44:12.192Z,100418.09
2022-10-06T14:46:39.929Z,100415.41
2022-10-06T14:49:07.169Z,100418.16
2022-10-06T14:51:36.574Z,100411.09
2022-10-06T14:54:06.101Z,100415.19
2022-10-06T14:56:34.667Z,100405.09
2022-10-06T14:59:04.242Z,100414.38
2022-10-06T15:01:31.911Z,100418.25
2022-10-06T15:04:00.000Z,100415.53
2022-10-06T15:06:26.986Z,100412.09
2022-10-06T15:08:56.288Z,100413.31
2022-10-06T15:11:25.619Z,100418.25
2022-10-06T15:13:52.200Z,100411.38
2022-10-06T15:16:18.725Z,100410.00
2022-10-06T15:18:45.245Z,100415.38
2022-10-06T15:21:11.758Z,100415.16
2022-10-06T15:23:38.928Z,100407.13
2022-10-06T15:26:06.044Z,100414.78
2022-10-06T15:28:33.883Z,100405.50
2022-10-06T15:31:00.441Z,100400.88
2022-10-06T15:33:27.675Z,100400.72
2022-10-06T15:36:13.936Z,100401.25
2022-10-06T15:38:40.470Z,100401.13
2022-10-06T15:41:06.950Z,100402.09
2022-10-06T15:43:34.889Z,100407.31
2022-10-06T15:46:01.365Z,100405.72
2022-10-06T15:48:27.867Z,100406.03
2022-10-06T15:50:54.389Z,100410.44
2022-10-06T15:53:20.905Z,100400.94
2022-10-06T15:55:47.428Z,100400.59
2022-10-06T15:58:14.028Z,100400.50
2022-10-06T16:00:42.038Z,100403.28
2022-10-06T16:03:08.660Z,100404.78
2022-10-06T16:05:35.212Z,100398.59
2022-10-06T16:08:01.696Z,100402.16
2022-10-06T16:10:28.288Z,100397.47
2022-10-06T16:12:54.781Z,100399.28
2022-10-06T16:15:21.433Z,100399.84
2022-10-06T16:17:49.277Z,100402.97
2022-10-06T16:20:15.982Z,100397.44
2022-10-06T16:22:42.574Z,100403.34
2022-10-06T16:25:09.483Z,100408.00
2022-10-06T16:27:35.962Z,100407.28
2022-10-06T16:30:02.643Z,100405.34
2022-10-06T16:32:29.131Z,100412.47
2022-10-06T16:34:57.025Z,100410.47
2022-10-06T16:37:23.532Z,100410.28
2022-10-06T16:39:50.029Z,100406.34
2022-10-06T16:42:16.652Z,100408.34
2022-10-06T16:44:43.160Z,100403.88
2022-10-06T16:47:09.904Z,100401.47
2022-10-06T16:49:36.685Z,100406.50
2022-10-06T16:52:04.599Z,100405.41
2022-10-06T16:54:31.134Z,100404.94
2022-10-06T16:56:57.769Z,100404.78
2022-10-06T16:59:24.654Z,100412.84
2022-10-06T17:01:51.200Z,100424.72
2022-10-06T17:04:19.394Z,100420.03
2022-10-06T17:06:47.516Z,100426.41
2022-10-06T17:09:18.204Z,100423.94
2022-10-06T17:11:46.898Z,100434.34
2022-10-06T17:14:13.624Z,100423.13
2022-10-06T17:16:42.803Z,100433.38
2022-10-06T17:19:10.804Z,100430.78
2022-10-06T17:21:47.493Z,100433.97
2022-10-06T17:24:16.925Z,100433.72
2022-10-06T17:26:44.635Z,100434.41
2022-10-06T17:29:13.472Z,100432.34
2022-10-06T17:31:41.834Z,100431.25
2022-10-06T17:34:10.724Z,100425.50
2022-10-06T17:36:38.301Z,100439.00
2022-10-06T17:39:06.004Z,100427.00
2022-10-06T17:41:36.031Z,100428.97
2022-10-06T17:44:04.969Z,100434.38
2022-10-06T17:46:33.946Z,100429.06
2022-10-06T17:49:03.009Z,100437.94
2022-10-06T17:51:29.516Z,100435.84
2022-10-06T17:53:57.811Z,100431.81
2022-10-06T17:56:25.609Z,100432.47
2022-10-06T17:58:54.778Z,100439.25
2022-10-06T18:01:23.311Z,100436.00
2022-10-06T18:03:50.295Z,100435.91
2022-10-06T18:06:17.758Z,100438.00
2022-10-06T18:08:45.692Z,100433.63
2022-10-06T18:11:14.175Z,100438.94
2022-10-06T18:13:40.772Z,100436.00
2022-10-06T18:16:14.812Z,100440.34
2022-10-06T18:18:44.217Z,100445.34
2022-10-06T18:21:10.936Z,100447.63
2022-10-06T18:23:37.425Z,100447.72
2022-10-06T18:26:04.093Z,100450.59
2022-10-06T18:28:30.642Z,100441.72
2022-10-06T18:30:57.205Z,100443.28
2022-10-06T18:36:14.766Z,100451.66
2022-10-06T18:38:43.448Z,100454.50
2022-10-06T18:41:12.826Z,100460.09
2022-10-06T18:43:39.464Z,100451.75
2022-10-06T18:46:07.656Z,100451.06
2022-10-06T18:48:37.278Z,100460.44
2022-10-06T18:51:04.142Z,100464.81
2022-10-06T18:53:30.651Z,100460.25
2022-10-06T18:55:57.292Z,100459.00
2022-10-06T18:58:23.785Z,100459.84
2022-10-06T19:00:50.353Z,100467.25
2022-10-06T19:03:16.840Z,100464.09
2022-10-06T19:05:52.287Z,100466.09
2022-10-06T19:08:18.784Z,100478.91
2022-10-06T19:10:45.300Z,100473.56
2022-10-06T19:13:11.810Z,100480.66
2022-10-06T19:15:38.488Z,100481.25
2022-10-06T19:18:05.312Z,100484.84
2022-10-06T19:20:31.808Z,100487.34
2022-10-06T19:22:59.671Z,100478.94
2022-10-06T19:25:26.287Z,100470.31
2022-10-06T19:27:52.849Z,100473.81
2022-10-06T19:30:19.399Z,100479.84
2022-10-06T19:32:45.888Z,100487.97
2022-10-06T19:35:12.421Z,100482.84
2022-10-06T19:37:39.304Z,100481.53
2022-10-06T19:40:07.431Z,100480.78
2022-10-06T19:42:33.940Z,100488.41
2022-10-06T19:45:00.604Z,100492.53
2022-10-06T19:47:27.884Z,100484.13
2022-10-06T19:49:57.854Z,100478.75
2022-10-06T19:52:25.597Z,100474.66
2022-10-06T19:54:52.161Z,100491.50
2022-10-06T19:57:20.146Z,100492.06
2022-10-06T19:59:46.647Z,100488.00
2022-10-06T20:02:13.436Z,100489.38
2022-10-06T20:04:40.082Z,100489.13
2022-10-06T20:07:07.720Z,100484.25
2022-10-06T20:09:34.370Z,100488.34
2022-10-06T20:12:01.375Z,100494.88
2022-10-06T20:14:29.367Z,100494.06
2022-10-06T20:16:56.546Z,100491.09
2022-10-06T20:19:23.595Z,100490.28
2022-10-06T20:21:50.392Z,100490.56
2022-10-06T20:24:19.236Z,100491.66
2022-10-06T20:26:46.640Z,100499.50
2022-10-06T20:29:14.753Z,100496.53
2022-10-06T20:31:44.845Z,100497.38
2022-10-06T20:34:13.667Z,100502.78
2022-10-06T20:36:40.424Z,100501.44
2022-10-06T20:39:11.167Z,100486.56
2022-10-06T20:41:38.588Z,100493.84
2022-10-06T20:44:05.384Z,100499.03
2022-10-06T20:46:34.426Z,100488.19
2022-10-06T20:49:04.976Z,100496.56
2022-10-06T20:51:32.661Z,100494.41
2022-10-06T20:53:59.724Z,100497.69
2022-10-06T20:56:26.276Z,100491.16
2022-10-06T20:58:53.216Z,100486.84
2022-10-06T21:01:21.645Z,100485.22
2022-10-06T21:03:50.719Z,100493.88
2022-10-06T21:06:18.920Z,100494.16
2022-10-06T21:08:46.478Z,100484.13
2022-10-06T21:11:14.188Z,100477.34
2022-10-06T21:13:41.203Z,100474.66
2022-10-06T21:16:07.872Z,100469.22
2022-10-06T21:18:34.497Z,100474.88
2022-10-06T21:21:02.283Z,100478.69
2022-10-06T21:23:35.006Z,100474.88
2022-10-06T21:26:01.696Z,100467.84
2022-10-06T21:28:28.395Z,100470.56
2022-10-06T21:31:00.524Z,100462.44
2022-10-06T21:33:27.066Z,100463.50
2022-10-06T21:36:00.294Z,100446.19
2022-10-06T21:38:27.567Z,100447.81
2022-10-06T21:40:56.064Z,100449.44
2022-10-06T21:43:23.119Z,100453.22
2022-10-06T21:46:00.829Z,100455.38
2022-10-06T21:48:36.179Z,100448.59
2022-10-06T21:51:02.652Z,100439.66
2022-10-06T21:53:31.487Z,100442.31
2022-10-06T21:55:59.307Z,100435.56
2022-10-06T21:58:25.961Z,100442.06
2022-10-06T22:00:57.302Z,100436.63
2022-10-06T22:03:24.729Z,100434.19
2022-10-06T22:05:51.230Z,100425.53
2022-10-06T22:08:17.773Z,100431.22
2022-10-06T22:10:44.288Z,100426.31
2022-10-06T22:13:12.186Z,100431.97
2022-10-06T22:15:38.848Z,100423.34
2022-10-06T22:18:05.463Z,100420.34
2022-10-06T22:20:31.958Z,100421.69
2022-10-06T22:23:02.552Z,100423.31
2022-10-06T22:25:31.163Z,100414.13
2022-10-06T22:27:57.764Z,100425.47
2022-10-06T22:30:25.706Z,100420.88
2022-10-06T22:32:52.211Z,100415.97
2022-10-06T22:35:18.686Z,100419.47
2022-10-06T22:37:45.670Z,100424.34
2022-10-06T22:40:12.690Z,100418.09
2022-10-06T22:42:39.153Z,100415.63
2022-10-06T22:45:06.577Z,100416.69
2022-10-06T22:47:34.542Z,100407.78
2022-10-06T22:50:01.057Z,100402.63
2022-10-06T22:52:27.547Z,100402.88
2022-10-06T22:54:54.034Z,100400.44
2022-10-06T22:57:20.525Z,100404.47
2022-10-06T22:59:47.019Z,100393.38
2022-10-06T23:02:13.525Z,100397.69
2022-10-06T23:04:41.394Z,100399.25
2022-10-06T23:07:07.983Z,100397.09
2022-10-06T23:09:34.500Z,100393.28
2022-10-06T23:12:01.116Z,100396.50
2022-10-06T23:14:27.600Z,100399.75
2022-10-06T23:16:54.151Z,100389.47
2022-10-06T23:19:20.665Z,100398.34
2022-10-06T23:21:48.512Z,100391.31
2022-10-06T23:24:15.100Z,100388.88
2022-10-06T23:26:41.752Z,100392.09
2022-10-06T23:29:11.831Z,100385.31
2022-10-06T23:31:38.375Z,100389.38
2022-10-06T23:34:04.948Z,100388.81
2022-10-06T23:36:31.485Z,100386.59
2022-10-06T23:38:59.520Z,100386.84
2022-10-06T23:41:26.137Z,100384.88
2022-10-06T23:43:52.627Z,100381.88
2022-10-06T23:46:19.190Z,100381.59
2022-10-06T23:48:45.821Z,100374.84
2022-10-06T23:51:14.192Z,100382.13
2022-10-06T23:53:41.240Z,100365.94
2022-10-06T23:56:09.656Z,100374.28
2022-10-06T23:58:36.614Z,100366.19
